createdAt,value
2019-06-20T00:00:37.105Z,94635.14
2019-06-20T00:03:06.659Z,94638.33
2019-06-20T00:05:36.140Z,94644.13
2019-06-20T00:08:05.583Z,94639.84
2019-06-20T00:10:35.074Z,94638.75
2019-06-20T00:13:04.787Z,94637.98
2019-06-20T00:15:34.539Z,94640.39
2019-06-20T00:18:04.007Z,94647.28
2019-06-20T00:20:33.482Z,94643.05
2019-06-20T00:23:04.629Z,94639.84
2019-06-20T00:25:34.112Z,94633.45
2019-06-20T00:28:03.584Z,94639.59
2019-06-20T00:30:33.041Z,94637.73
2019-06-20T00:33:02.525Z,94640.42
2019-06-20T00:35:31.997Z,94634.00
2019-06-20T00:38:01.498Z,94646.75
2019-06-20T00:40:30.967Z,94645.14
2019-06-20T00:43:13.420Z,94639.84
2019-06-20T00:45:31.623Z,94631.88
2019-06-20T00:48:01.098Z,94631.07
2019-06-20T00:50:31.134Z,94627.33
2019-06-20T00:53:00.640Z,94630.73
2019-06-20T00:55:30.395Z,94633.63
2019-06-20T00:57:59.859Z,94629.41
2019-06-20T01:00:29.349Z,94626.44
2019-06-20T01:02:58.861Z,94621.38
2019-06-20T01:05:28.290Z,94621.89
2019-06-20T01:07:57.752Z,94623.22
2019-06-20T01:10:27.240Z,94618.16
2019-06-20T01:12:56.727Z,94620.02
2019-06-20T01:15:26.309Z,94630.07
2019-06-20T01:17:55.797Z,94631.12
2019-06-20T01:20:25.319Z,94626.33
2019-06-20T01:22:54.803Z,94621.30
2019-06-20T01:25:37.118Z,94623.71
2019-06-20T01:28:07.210Z,94631.64
2019-06-20T01:30:36.716Z,94634.54
2019-06-20T01:33:06.320Z,94637.20
2019-06-20T01:35:35.792Z,94631.88
2019-06-20T01:38:05.541Z,94637.09
2019-06-20T01:40:35.023Z,94635.68
2019-06-20T01:43:04.571Z,94635.32
2019-06-20T01:45:34.189Z,94630.50
2019-06-20T01:48:03.886Z,94634.77
2019-06-20T01:50:33.329Z,94634.24
2019-06-20T01:53:02.810Z,94635.32
2019-06-20T01:55:32.319Z,94634.00
2019-06-20T01:58:01.867Z,94631.07
2019-06-20T02:00:43.756Z,94627.81
2019-06-20T02:03:13.994Z,94629.91
2019-06-20T02:05:43.810Z,94629.38
2019-06-20T02:08:13.484Z,94624.32
2019-06-20T02:10:42.951Z,94629.02
2019-06-20T02:13:12.388Z,94629.78
2019-06-20T02:15:41.984Z,94630.30
2019-06-20T02:18:11.625Z,94628.98
2019-06-20T02:20:48.111Z,94637.53
2019-06-20T02:23:17.591Z,94639.62
2019-06-20T02:25:47.163Z,94642.24
2019-06-20T02:28:16.649Z,94649.34
2019-06-20T02:30:46.132Z,94653.72
2019-06-20T02:33:15.603Z,94652.92
2019-06-20T02:35:45.056Z,94656.61
2019-06-20T02:38:14.570Z,94651.63
2019-06-20T02:40:44.177Z,94657.90
2019-06-20T02:43:13.623Z,94667.70
2019-06-20T02:45:43.113Z,94671.10
2019-06-20T02:48:12.574Z,94670.48
2019-06-20T02:50:42.073Z,94679.66
2019-06-20T02:53:11.564Z,94679.66
2019-06-20T02:55:41.039Z,94677.72
2019-06-20T02:58:10.478Z,94675.73
2019-06-20T03:00:51.189Z,94677.05
2019-06-20T03:03:20.659Z,94676.99
2019-06-20T03:05:50.131Z,94678.12
2019-06-20T03:08:19.666Z,94684.97
2019-06-20T03:10:49.147Z,94675.41
2019-06-20T03:13:18.676Z,94672.77
2019-06-20T03:15:50.104Z,94674.53
2019-06-20T03:18:19.425Z,94672.17
2019-06-20T03:20:48.913Z,94679.03
2019-06-20T03:23:18.381Z,94682.48
2019-06-20T03:25:47.839Z,94674.30
2019-06-20T03:28:17.289Z,94677.80
2019-06-20T03:30:46.774Z,94674.45
2019-06-20T03:33:16.261Z,94673.47
2019-06-20T03:35:45.749Z,94675.73
2019-06-20T03:38:15.223Z,94675.78
2019-06-20T03:40:44.697Z,94667.73
2019-06-20T03:43:14.156Z,94660.70
2019-06-20T03:45:43.671Z,94668.91
2019-06-20T03:48:13.141Z,94663.76
2019-06-20T03:50:42.727Z,94669.91
2019-06-20T03:53:12.212Z,94670.72
2019-06-20T03:55:41.782Z,94672.42
2019-06-20T03:58:11.284Z,94665.97
2019-06-20T04:00:40.755Z,94670.63
2019-06-20T04:03:10.247Z,94668.68
2019-06-20T04:05:39.746Z,94669.48
2019-06-20T04:08:09.365Z,94673.74
2019-06-20T04:10:38.852Z,94670.97
2019-06-20T04:13:08.417Z,94666.51
2019-06-20T04:15:37.897Z,94671.16
2019-06-20T04:18:07.363Z,94669.56
2019-06-20T04:20:36.846Z,94670.72
2019-06-20T04:23:07.230Z,94663.23
2019-06-20T04:25:36.789Z,94667.56
2019-06-20T04:28:06.407Z,94667.19
2019-06-20T04:30:35.894Z,94671.02
2019-06-20T04:33:05.410Z,94668.08
2019-06-20T04:35:34.901Z,94658.78
2019-06-20T04:38:04.364Z,94667.03
2019-06-20T04:40:33.955Z,94668.66
2019-06-20T04:43:03.565Z,94670.34
2019-06-20T04:45:48.054Z,94664.19
2019-06-20T04:48:17.515Z,94664.58
2019-06-20T04:50:46.995Z,94667.23
2019-06-20T04:53:16.447Z,94665.61
2019-06-20T04:55:45.925Z,94661.27
2019-06-20T04:58:15.399Z,94664.75
2019-06-20T05:00:44.866Z,94667.39
2019-06-20T05:03:14.381Z,94665.59
2019-06-20T05:05:43.852Z,94662.45
2019-06-20T05:08:13.416Z,94659.55
2019-06-20T05:10:42.950Z,94667.16
2019-06-20T05:13:12.364Z,94659.95
2019-06-20T05:15:51.926Z,94662.21
2019-06-20T05:18:13.193Z,94661.98
2019-06-20T05:20:42.704Z,94658.08
2019-06-20T05:23:12.198Z,94658.11
2019-06-20T05:25:41.681Z,94655.52
2019-06-20T05:28:46.440Z,94651.19
2019-06-20T05:31:07.162Z,94652.98
2019-06-20T05:33:36.650Z,94658.67
2019-06-20T05:36:06.169Z,94659.62
2019-06-20T05:38:35.623Z,94662.70
2019-06-20T05:41:05.206Z,94666.64
2019-06-20T05:43:34.737Z,94668.86
2019-06-20T05:46:09.778Z,94667.27
2019-06-20T05:48:35.626Z,94668.66
2019-06-20T05:51:05.168Z,94674.56
2019-06-20T05:53:34.619Z,94683.92
2019-06-20T05:56:04.081Z,94689.41
2019-06-20T05:58:33.617Z,94689.03
2019-06-20T06:01:03.220Z,94694.78
2019-06-20T06:03:33.567Z,94693.61
2019-06-20T06:06:03.377Z,94698.17
2019-06-20T06:08:32.858Z,94693.95
2019-06-20T06:11:02.314Z,94695.80
2019-06-20T06:13:31.890Z,94696.89
2019-06-20T06:16:01.388Z,94695.61
2019-06-20T06:18:30.929Z,94689.79
2019-06-20T06:21:00.388Z,94689.14
2019-06-20T06:23:29.881Z,94691.41
2019-06-20T06:25:59.569Z,94687.56
2019-06-20T06:28:29.028Z,94688.06
2019-06-20T06:30:58.508Z,94685.91
2019-06-20T06:33:28.020Z,94685.30
2019-06-20T06:35:57.508Z,94683.03
2019-06-20T06:38:26.947Z,94684.41
2019-06-20T06:40:56.431Z,94686.35
2019-06-20T06:43:25.916Z,94689.32
2019-06-20T06:45:55.395Z,94685.77
2019-06-20T06:48:24.874Z,94681.28
2019-06-20T06:50:54.392Z,94684.73
2019-06-20T06:53:23.881Z,94682.85
2019-06-20T06:55:53.359Z,94684.73
2019-06-20T06:58:22.927Z,94688.41
2019-06-20T07:00:52.506Z,94692.62
2019-06-20T07:03:21.994Z,94685.73
2019-06-20T07:05:51.525Z,94680.39
2019-06-20T07:08:21.019Z,94675.66
2019-06-20T07:10:50.509Z,94688.88
2019-06-20T07:13:20.040Z,94686.73
2019-06-20T07:15:49.501Z,94683.25
2019-06-20T07:18:18.958Z,94677.06
2019-06-20T07:20:48.410Z,94672.73
2019-06-20T07:23:17.911Z,94676.61
2019-06-20T07:25:47.375Z,94674.89
2019-06-20T07:28:16.864Z,94672.73
2019-06-20T07:30:46.357Z,94668.55
2019-06-20T07:33:15.843Z,94667.98
2019-06-20T07:35:45.372Z,94669.52
2019-06-20T07:38:14.900Z,94662.18
2019-06-20T07:40:44.466Z,94664.78
2019-06-20T07:43:13.972Z,94662.44
2019-06-20T07:45:43.413Z,94664.89
2019-06-20T07:48:12.930Z,94668.52
2019-06-20T07:50:42.453Z,94660.45
2019-06-20T07:53:11.927Z,94661.03
2019-06-20T07:55:41.387Z,94659.58
2019-06-20T07:58:10.894Z,94659.05
2019-06-20T08:00:40.359Z,94658.33
2019-06-20T08:03:09.832Z,94660.02
2019-06-20T08:05:39.350Z,94657.47
2019-06-20T08:08:08.890Z,94653.41
2019-06-20T08:10:38.390Z,94647.43
2019-06-20T08:13:07.851Z,94654.22
2019-06-20T08:15:37.391Z,94652.31
2019-06-20T08:18:06.887Z,94654.14
2019-06-20T08:20:36.384Z,94646.55
2019-06-20T08:23:05.972Z,94647.23
2019-06-20T08:25:35.551Z,94645.21
2019-06-20T08:28:05.052Z,94641.41
2019-06-20T08:30:35.872Z,94635.55
2019-06-20T08:33:11.749Z,94636.31
2019-06-20T08:35:37.630Z,94640.02
2019-06-20T08:38:07.571Z,94631.80
2019-06-20T08:40:40.924Z,94631.31
2019-06-20T08:43:10.686Z,94630.22
2019-06-20T08:45:42.238Z,94635.30
2019-06-20T08:48:11.684Z,94636.80
2019-06-20T08:50:41.299Z,94638.90
2019-06-20T08:53:10.824Z,94631.00
2019-06-20T08:55:40.439Z,94638.41
2019-06-20T08:58:10.121Z,94637.53
2019-06-20T09:00:41.140Z,94633.06
2019-06-20T09:03:10.630Z,94634.87
2019-06-20T09:05:40.156Z,94624.05
2019-06-20T09:08:11.481Z,94616.83
2019-06-20T09:10:41.871Z,94613.61
2019-06-20T09:13:12.920Z,94612.27
2019-06-20T09:15:43.319Z,94609.67
2019-06-20T09:18:13.251Z,94604.69
2019-06-20T09:20:43.447Z,94610.62
2019-06-20T09:23:12.936Z,94604.87
2019-06-20T09:25:42.937Z,94598.98
2019-06-20T09:28:12.408Z,94598.87
2019-06-20T09:30:41.874Z,94595.87
2019-06-20T09:33:11.328Z,94597.11
2019-06-20T09:35:40.821Z,94597.61
2019-06-20T09:38:10.302Z,94594.83
2019-06-20T09:40:39.773Z,94598.26
2019-06-20T09:43:09.318Z,94597.52
2019-06-20T09:45:39.037Z,94593.43
2019-06-20T09:48:08.534Z,94590.80
2019-06-20T09:50:38.078Z,94596.80
2019-06-20T09:53:07.653Z,94593.20
2019-06-20T09:55:37.179Z,94587.45
2019-06-20T09:58:06.769Z,94583.58
2019-06-20T10:00:36.906Z,94578.88
2019-06-20T10:03:06.800Z,94572.46
2019-06-20T10:05:36.881Z,94577.85
2019-06-20T10:08:07.104Z,94574.98
2019-06-20T10:10:37.075Z,94574.50
2019-06-20T10:13:06.736Z,94570.22
2019-06-20T10:15:39.124Z,94564.95
2019-06-20T10:18:08.894Z,94562.38
2019-06-20T10:20:39.125Z,94562.02
2019-06-20T10:23:08.924Z,94571.18
2019-06-20T10:25:38.922Z,94566.42
2019-06-20T10:28:08.735Z,94567.81
2019-06-20T10:30:38.250Z,94563.13
2019-06-20T10:33:07.846Z,94568.47
2019-06-20T10:35:37.727Z,94568.11
2019-06-20T10:38:07.237Z,94567.26
2019-06-20T10:40:36.717Z,94559.89
2019-06-20T10:43:06.198Z,94561.45
2019-06-20T10:45:36.202Z,94560.11
2019-06-20T10:48:05.931Z,94560.20
2019-06-20T10:50:35.385Z,94562.70
2019-06-20T10:53:04.885Z,94555.68
2019-06-20T10:55:34.408Z,94552.63
2019-06-20T10:58:03.869Z,94550.58
2019-06-20T11:00:34.458Z,94540.62
2019-06-20T11:03:03.995Z,94529.77
2019-06-20T11:05:33.498Z,94533.42
2019-06-20T11:08:02.990Z,94528.08
2019-06-20T11:10:32.960Z,94529.53
2019-06-20T11:13:02.436Z,94533.46
2019-06-20T11:15:32.137Z,94531.09
2019-06-20T11:18:01.655Z,94538.34
2019-06-20T11:20:31.296Z,94538.88
2019-06-20T11:23:00.745Z,94542.31
2019-06-20T11:25:30.206Z,94539.06
2019-06-20T11:27:59.640Z,94542.80
2019-06-20T11:30:44.836Z,94532.36
2019-06-20T11:33:02.521Z,94526.91
2019-06-20T11:35:32.328Z,94536.09
2019-06-20T11:38:01.846Z,94525.78
2019-06-20T11:40:31.312Z,94522.63
2019-06-20T11:43:00.814Z,94518.88
2019-06-20T11:45:30.309Z,94519.92
2019-06-20T11:47:59.790Z,94516.89
2019-06-20T11:50:29.235Z,94520.70
2019-06-20T11:52:58.720Z,94516.72
2019-06-20T11:55:28.199Z,94520.20
2019-06-20T11:57:57.621Z,94520.08
2019-06-20T12:00:28.327Z,94514.70
2019-06-20T12:02:57.841Z,94538.52
2019-06-20T12:05:27.328Z,94550.94
2019-06-20T12:07:56.848Z,94546.34
2019-06-20T12:10:26.480Z,94589.05
2019-06-20T12:12:55.943Z,94574.59
2019-06-20T12:15:25.388Z,94576.58
2019-06-20T12:17:54.855Z,94575.88
2019-06-20T12:20:24.628Z,94587.25
2019-06-20T12:22:54.089Z,94598.52
2019-06-20T12:25:25.474Z,94612.33
2019-06-20T12:27:54.922Z,94610.77
2019-06-20T12:30:25.148Z,94626.47
2019-06-20T12:32:54.719Z,94631.50
2019-06-20T12:35:24.242Z,94615.68
2019-06-20T12:37:53.685Z,94621.27
2019-06-20T12:40:23.241Z,94609.62
2019-06-20T12:42:52.749Z,94604.59
2019-06-20T12:45:22.824Z,94615.83
2019-06-20T12:47:52.391Z,94602.20
2019-06-20T12:50:22.042Z,94613.67
2019-06-20T12:52:51.503Z,94626.13
2019-06-20T12:55:20.980Z,94642.41
2019-06-20T12:57:50.473Z,94660.21
2019-06-20T13:00:20.725Z,94678.64
2019-06-20T13:02:50.176Z,94688.95
2019-06-20T13:05:21.267Z,94697.14
2019-06-20T13:07:51.444Z,94694.95
2019-06-20T13:10:22.134Z,94697.07
2019-06-20T13:12:51.704Z,94696.60
2019-06-20T13:15:22.104Z,94700.30
2019-06-20T13:17:51.599Z,94702.22
2019-06-20T13:20:21.291Z,94695.51
2019-06-20T13:22:51.500Z,94700.70
2019-06-20T13:25:20.960Z,94704.20
2019-06-20T13:27:50.791Z,94706.58
2019-06-20T13:30:20.644Z,94697.78
2019-06-20T13:32:50.140Z,94690.30
2019-06-20T13:35:20.283Z,94680.14
2019-06-20T13:37:50.105Z,94685.14
2019-06-20T13:40:20.214Z,94682.65
2019-06-20T13:42:50.344Z,94682.61
2019-06-20T13:45:22.748Z,94672.78
2019-06-20T13:47:52.441Z,94676.76
2019-06-20T13:50:22.634Z,94673.81
2019-06-20T13:52:52.211Z,94672.95
2019-06-20T13:55:21.707Z,94672.20
2019-06-20T13:57:51.310Z,94671.37
2019-06-20T14:00:22.812Z,94661.25
2019-06-20T14:02:52.273Z,94643.20
2019-06-20T14:05:21.790Z,94636.80
2019-06-20T14:07:53.884Z,94640.06
2019-06-20T14:10:23.370Z,94632.41
2019-06-20T14:12:53.010Z,94634.33
2019-06-20T14:15:22.580Z,94631.96
2019-06-20T14:17:53.709Z,94626.91
2019-06-20T14:20:23.953Z,94625.83
2019-06-20T14:22:54.607Z,94624.48
2019-06-20T14:25:24.667Z,94613.02
2019-06-20T14:27:54.244Z,94612.40
2019-06-20T14:30:24.135Z,94601.16
2019-06-20T14:32:54.134Z,94605.05
2019-06-20T14:35:23.913Z,94603.37
2019-06-20T14:37:55.366Z,94604.06
2019-06-20T14:40:24.751Z,94606.72
2019-06-20T14:42:54.471Z,94608.43
2019-06-20T14:45:24.021Z,94606.73
2019-06-20T14:47:53.572Z,94600.13
2019-06-20T14:50:23.910Z,94605.05
2019-06-20T14:52:54.164Z,94613.42
2019-06-20T14:55:23.923Z,94605.49
2019-06-20T14:57:54.706Z,94607.61
2019-06-20T15:00:25.213Z,94617.09
2019-06-20T15:02:58.323Z,94625.03
2019-06-20T15:05:25.911Z,94631.95
2019-06-20T15:07:56.043Z,94631.87
2019-06-20T15:10:25.656Z,94638.03
2019-06-20T15:12:55.941Z,94639.86
2019-06-20T15:15:25.708Z,94642.20
2019-06-20T15:17:57.466Z,94642.41
2019-06-20T15:20:26.433Z,94630.98
2019-06-20T15:22:56.601Z,94635.56
2019-06-20T15:25:26.427Z,94631.09
2019-06-20T15:27:57.361Z,94632.70
2019-06-20T15:30:27.038Z,94639.62
2019-06-20T15:33:07.481Z,94633.10
2019-06-20T15:35:27.838Z,94638.17
2019-06-20T15:37:57.866Z,94641.63
2019-06-20T15:40:27.599Z,94633.71
2019-06-20T15:42:58.765Z,94632.91
2019-06-20T15:45:28.981Z,94624.94
2019-06-20T15:47:58.598Z,94616.64
2019-06-20T15:50:28.084Z,94612.36
2019-06-20T15:52:57.521Z,94610.72
2019-06-20T15:55:27.010Z,94614.97
2019-06-20T15:57:56.646Z,94615.29
2019-06-20T16:00:27.017Z,94618.41
2019-06-20T16:03:08.878Z,94621.09
2019-06-20T16:05:27.784Z,94615.02
2019-06-20T16:07:57.275Z,94616.34
2019-06-20T16:10:26.767Z,94613.47
2019-06-20T16:12:56.313Z,94609.28
2019-06-20T16:15:25.802Z,94614.45
2019-06-20T16:17:55.302Z,94617.43
2019-06-20T16:20:25.466Z,94612.03
2019-06-20T16:22:54.963Z,94609.67
2019-06-20T16:25:24.462Z,94609.88
2019-06-20T16:27:53.935Z,94612.75
2019-06-20T16:30:23.537Z,94611.48
2019-06-20T16:32:53.061Z,94615.78
2019-06-20T16:35:22.480Z,94622.30
2019-06-20T16:37:51.983Z,94629.75
2019-06-20T16:40:31.399Z,94631.62
2019-06-20T16:43:00.850Z,94632.27
2019-06-20T16:45:30.760Z,94629.55
2019-06-20T16:48:00.234Z,94631.07
2019-06-20T16:50:29.683Z,94631.33
2019-06-20T16:53:01.292Z,94627.86
2019-06-20T16:55:30.434Z,94628.37
2019-06-20T16:57:59.938Z,94627.86
2019-06-20T17:00:33.076Z,94625.27
2019-06-20T17:03:02.537Z,94626.42
2019-06-20T17:05:32.094Z,94629.16
2019-06-20T17:08:01.540Z,94629.09
2019-06-20T17:10:31.018Z,94638.72
2019-06-20T17:13:00.548Z,94638.51
2019-06-20T17:15:30.077Z,94628.37
2019-06-20T17:17:59.544Z,94620.69
2019-06-20T17:20:29.018Z,94620.02
2019-06-20T17:22:58.508Z,94623.25
2019-06-20T17:25:28.087Z,94622.42
2019-06-20T17:27:57.890Z,94631.45
2019-06-20T17:30:28.262Z,94634.87
2019-06-20T17:32:57.734Z,94634.87
2019-06-20T17:35:27.314Z,94643.68
2019-06-20T17:37:57.107Z,94649.78
2019-06-20T17:40:28.383Z,94651.66
2019-06-20T17:42:57.854Z,94649.78
2019-06-20T17:45:27.857Z,94642.35
2019-06-20T17:47:57.350Z,94642.67
2019-06-20T17:50:27.192Z,94643.75
2019-06-20T17:52:56.709Z,94637.92
2019-06-20T17:55:26.226Z,94635.00
2019-06-20T17:57:55.715Z,94635.80
2019-06-20T18:00:25.973Z,94630.78
2019-06-20T18:02:55.749Z,94621.48
2019-06-20T18:05:25.220Z,94624.25
2019-06-20T18:07:54.726Z,94617.63
2019-06-20T18:10:24.394Z,94622.47
2019-06-20T18:12:53.866Z,94624.08
2019-06-20T18:15:23.454Z,94612.66
2019-06-20T18:17:52.960Z,94615.60
2019-06-20T18:20:22.624Z,94618.27
2019-06-20T18:22:52.159Z,94621.20
2019-06-20T18:25:21.733Z,94619.60
2019-06-20T18:27:51.201Z,94627.36
2019-06-20T18:30:25.492Z,94635.90
2019-06-20T18:32:54.974Z,94640.45
2019-06-20T18:35:24.638Z,94641.01
2019-06-20T18:37:54.137Z,94645.55
2019-06-20T18:40:23.581Z,94659.13
2019-06-20T18:42:53.088Z,94665.01
2019-06-20T18:45:22.633Z,94673.55
2019-06-20T18:47:52.154Z,94682.85
2019-06-20T18:50:21.588Z,94680.74
2019-06-20T18:52:52.677Z,94687.38
2019-06-20T18:55:22.623Z,94693.52
2019-06-20T18:57:52.373Z,94685.27
2019-06-20T19:00:34.260Z,94682.59
2019-06-20T19:02:54.154Z,94686.06
2019-06-20T19:05:23.616Z,94685.53
2019-06-20T19:07:53.161Z,94696.47
2019-06-20T19:10:23.432Z,94698.05
2019-06-20T19:12:52.947Z,94698.05
2019-06-20T19:15:23.907Z,94708.17
2019-06-20T19:17:53.545Z,94710.30
2019-06-20T19:20:23.273Z,94715.09
2019-06-20T19:22:52.809Z,94712.69
2019-06-20T19:25:22.279Z,94714.54
2019-06-20T19:27:51.797Z,94712.13
2019-06-20T19:30:26.071Z,94718.78
2019-06-20T19:32:55.554Z,94722.76
2019-06-20T19:35:25.062Z,94729.13
2019-06-20T19:37:54.579Z,94726.21
2019-06-20T19:40:27.053Z,94730.19
2019-06-20T19:42:56.513Z,94737.66
2019-06-20T19:45:26.171Z,94744.31
2019-06-20T19:47:55.685Z,94749.36
2019-06-20T19:50:25.280Z,94744.00
2019-06-20T19:52:54.774Z,94736.81
2019-06-20T19:55:24.547Z,94740.53
2019-06-20T19:57:54.028Z,94739.45
2019-06-20T20:00:23.595Z,94742.13
2019-06-20T20:02:53.377Z,94750.88
2019-06-20T20:05:22.914Z,94756.45
2019-06-20T20:07:52.400Z,94762.34
2019-06-20T20:10:32.990Z,94763.11
2019-06-20T20:13:02.477Z,94763.91
2019-06-20T20:15:31.944Z,94761.49
2019-06-20T20:18:01.473Z,94759.89
2019-06-20T20:20:30.977Z,94757.22
2019-06-20T20:23:00.443Z,94751.34
2019-06-20T20:25:29.919Z,94756.16
2019-06-20T20:27:59.368Z,94756.65
2019-06-20T20:30:28.970Z,94762.47
2019-06-20T20:33:01.874Z,94762.43
2019-06-20T20:35:35.325Z,94764.54
2019-06-20T20:38:00.883Z,94765.06
2019-06-20T20:40:30.359Z,94763.23
2019-06-20T20:42:59.870Z,94767.18
2019-06-20T20:45:29.339Z,94765.28
2019-06-20T20:47:58.855Z,94759.41
2019-06-20T20:50:28.348Z,94763.69
2019-06-20T20:52:57.826Z,94757.52
2019-06-20T20:55:27.327Z,94749.25
2019-06-20T20:57:56.783Z,94759.39
2019-06-20T21:00:27.264Z,94753.02
2019-06-20T21:02:57.075Z,94755.41
2019-06-20T21:05:26.525Z,94754.05
2019-06-20T21:07:56.021Z,94747.92
2019-06-20T21:10:25.522Z,94747.42
2019-06-20T21:12:55.020Z,94751.40
2019-06-20T21:15:25.478Z,94750.82
2019-06-20T21:17:55.806Z,94749.14
2019-06-20T21:20:25.434Z,94753.88
2019-06-20T21:22:54.912Z,94746.10
2019-06-20T21:25:24.500Z,94737.88
2019-06-20T21:27:53.970Z,94735.70
2019-06-20T21:30:23.544Z,94738.80
2019-06-20T21:32:53.020Z,94741.09
2019-06-20T21:35:22.560Z,94739.30
2019-06-20T21:37:52.074Z,94731.30
2019-06-20T21:40:21.594Z,94738.47
2019-06-20T21:42:51.086Z,94743.56
2019-06-20T21:45:20.759Z,94752.09
2019-06-20T21:47:50.258Z,94752.62
2019-06-20T21:50:20.831Z,94748.63
2019-06-20T21:52:50.306Z,94748.87
2019-06-20T21:55:19.768Z,94746.72
2019-06-20T21:57:49.241Z,94740.60
2019-06-20T22:00:25.432Z,94737.70
2019-06-20T22:02:54.946Z,94736.12
2019-06-20T22:05:24.414Z,94735.02
2019-06-20T22:07:53.890Z,94733.59
2019-06-20T22:10:24.074Z,94728.80
2019-06-20T22:12:53.731Z,94731.71
2019-06-20T22:15:23.208Z,94731.68
2019-06-20T22:17:52.711Z,94733.78
2019-06-20T22:20:22.377Z,94738.51
2019-06-20T22:22:51.835Z,94743.79
2019-06-20T22:25:22.143Z,94745.36
2019-06-20T22:27:51.586Z,94750.67
2019-06-20T22:30:47.259Z,94755.53
2019-06-20T22:33:16.753Z,94761.64
2019-06-20T22:35:46.375Z,94761.89
2019-06-20T22:38:15.872Z,94764.73
2019-06-20T22:40:45.517Z,94772.91
2019-06-20T22:43:15.024Z,94764.48
2019-06-20T22:45:44.563Z,94774.58
2019-06-20T22:48:14.045Z,94772.20
2019-06-20T22:50:43.759Z,94775.66
2019-06-20T22:53:13.254Z,94772.97
2019-06-20T22:55:42.750Z,94769.66
2019-06-20T22:58:12.263Z,94768.18
2019-06-20T23:00:41.757Z,94772.13
2019-06-20T23:03:11.201Z,94780.13
2019-06-20T23:05:40.671Z,94779.05
2019-06-20T23:08:10.136Z,94770.80
2019-06-20T23:10:39.587Z,94779.84
2019-06-20T23:13:09.116Z,94770.80
2019-06-20T23:15:38.612Z,94780.09
2019-06-20T23:18:08.057Z,94769.99
2019-06-20T23:20:37.549Z,94765.48
2019-06-20T23:23:07.022Z,94767.26
2019-06-20T23:25:38.136Z,94775.67
2019-06-20T23:28:07.610Z,94755.64
2019-06-20T23:30:37.091Z,94750.61
2019-06-20T23:33:06.548Z,94750.05
2019-06-20T23:35:36.398Z,94750.61
2019-06-20T23:38:05.883Z,94751.42
2019-06-20T23:40:35.330Z,94758.58
2019-06-20T23:43:05.006Z,94756.69
2019-06-20T23:45:34.515Z,94751.30
2019-06-20T23:48:04.024Z,94751.94
2019-06-20T23:50:33.457Z,94754.27
2019-06-20T23:53:11.859Z,94743.57
2019-06-20T23:55:41.342Z,94732.16
2019-06-20T23:58:10.815Z,94731.11
